createdAt,value
2022-12-28T00:01:53.367Z,101471.16
2022-12-28T00:04:25.379Z,101475.50
2022-12-28T00:06:57.310Z,101472.00
2022-12-28T00:09:29.329Z,101436.34
2022-12-28T00:12:01.294Z,101452.81
2022-12-28T00:14:33.363Z,101453.72
2022-12-28T00:17:05.354Z,101438.03
2022-12-28T00:19:37.638Z,101428.38
2022-12-28T00:22:09.623Z,101416.41
2022-12-28T00:24:41.742Z,101410.28
2022-12-28T00:27:13.678Z,101401.47
2022-12-28T00:29:45.595Z,101391.88
2022-12-28T00:32:17.617Z,101383.97
2022-12-28T00:34:49.543Z,101383.97
2022-12-28T00:37:21.501Z,101391.69
2022-12-28T00:39:53.436Z,101383.97
2022-12-28T00:42:25.402Z,101366.47
2022-12-28T00:44:57.360Z,101372.88
2022-12-28T00:47:29.289Z,101347.84
2022-12-28T00:50:01.280Z,101368.00
2022-12-28T00:52:33.230Z,101362.75
2022-12-28T00:55:05.722Z,101351.34
2022-12-28T00:57:40.900Z,101346.34
2022-12-28T01:00:14.082Z,101342.13
2022-12-28T01:02:46.087Z,101345.44
2022-12-28T01:05:18.169Z,101343.41
2022-12-28T01:07:50.793Z,101328.47
2022-12-28T01:10:22.949Z,101339.41
2022-12-28T01:12:55.250Z,101324.69
2022-12-28T01:15:27.195Z,101328.31
2022-12-28T01:17:59.264Z,101328.38
2022-12-28T01:20:31.589Z,101322.34
2022-12-28T01:23:03.542Z,101300.69
2022-12-28T01:25:35.555Z,101311.63
2022-12-28T01:28:07.521Z,101311.00
2022-12-28T01:30:39.466Z,101324.22
2022-12-28T01:33:11.481Z,101312.16
2022-12-28T01:35:43.486Z,101298.94
2022-12-28T01:38:15.446Z,101299.16
2022-12-28T01:40:47.404Z,101288.97
2022-12-28T01:43:29.905Z,101290.75
2022-12-28T01:46:03.657Z,101287.25
2022-12-28T01:48:39.689Z,101280.53
2022-12-28T01:51:12.140Z,101275.50
2022-12-28T01:53:44.550Z,101255.44
2022-12-28T01:56:16.698Z,101273.09
2022-12-28T01:58:50.014Z,101261.09
2022-12-28T02:01:22.152Z,101257.56
2022-12-28T02:03:54.189Z,101250.72
2022-12-28T02:06:26.391Z,101241.72
2022-12-28T02:09:14.414Z,101234.13
2022-12-28T02:11:48.420Z,101233.53
2022-12-28T02:14:21.662Z,101228.47
2022-12-28T02:16:55.509Z,101215.34
2022-12-28T02:19:49.441Z,101211.00
2022-12-28T02:22:32.958Z,101208.69
2022-12-28T02:25:29.523Z,101197.50
2022-12-28T02:28:29.331Z,101186.81
2022-12-28T02:31:14.296Z,101186.97
2022-12-28T02:34:05.962Z,101176.50
2022-12-28T02:36:49.992Z,101154.69
2022-12-28T02:39:44.339Z,101146.84
2022-12-28T02:42:18.023Z,101148.84
2022-12-28T02:45:08.361Z,101157.69
2022-12-28T02:48:04.943Z,101157.59
2022-12-28T02:50:54.098Z,101157.50
2022-12-28T02:53:57.321Z,101157.50
2022-12-28T02:56:55.129Z,101144.97
2022-12-28T02:59:54.895Z,101165.28
2022-12-28T03:02:59.538Z,101136.56
2022-12-28T03:06:17.480Z,101145.25
2022-12-28T03:09:07.596Z,101139.94
2022-12-28T03:12:29.664Z,101139.88
2022-12-28T03:15:29.665Z,101128.28
2022-12-28T03:18:36.925Z,101119.47
2022-12-28T03:21:29.896Z,101136.44
2022-12-28T03:24:21.833Z,101141.66
2022-12-28T03:27:15.884Z,101101.84
2022-12-28T03:30:18.502Z,101121.44
2022-12-28T03:32:51.332Z,101102.88
2022-12-28T03:35:39.649Z,101091.75
2022-12-28T03:38:27.473Z,101112.75
2022-12-28T03:41:09.104Z,101118.81
2022-12-28T03:43:55.660Z,101104.91
2022-12-28T03:46:47.459Z,101114.53
2022-12-28T03:49:19.889Z,101105.03
2022-12-28T03:51:52.685Z,101105.94
2022-12-28T03:54:25.354Z,101092.81
2022-12-28T03:56:57.297Z,101101.63
2022-12-28T03:59:29.244Z,101091.91
2022-12-28T04:02:01.482Z,101096.47
2022-12-28T04:04:33.533Z,101086.22
2022-12-28T04:07:05.460Z,101088.25
2022-12-28T04:09:37.469Z,101085.78
2022-12-28T04:12:09.600Z,101036.00
2022-12-28T04:14:41.534Z,101086.69
2022-12-28T04:17:13.507Z,101071.72
2022-12-28T04:19:47.828Z,101080.84
2022-12-28T04:22:19.711Z,101083.38
2022-12-28T04:24:51.646Z,101080.97
2022-12-28T04:27:24.242Z,101083.75
2022-12-28T04:29:56.145Z,101082.16
2022-12-28T04:32:29.371Z,101081.41
2022-12-28T04:35:01.403Z,101077.09
2022-12-28T04:37:37.301Z,101082.41
2022-12-28T04:40:10.056Z,101091.22
2022-12-28T04:42:41.983Z,101077.41
2022-12-28T04:45:18.399Z,101068.84
2022-12-28T04:47:57.844Z,101070.66
2022-12-28T04:50:30.416Z,101072.44
2022-12-28T04:53:02.304Z,101074.31
2022-12-28T04:55:34.856Z,101063.94
2022-12-28T04:58:06.862Z,101071.81
2022-12-28T05:00:39.527Z,101070.19
2022-12-28T05:03:11.508Z,101062.41
2022-12-28T05:05:43.459Z,101059.66
2022-12-28T05:08:15.390Z,101059.88
2022-12-28T05:10:47.311Z,101068.75
2022-12-28T05:13:19.272Z,101060.16
2022-12-28T05:15:51.213Z,101056.47
2022-12-28T05:18:23.207Z,101055.66
2022-12-28T05:21:07.185Z,101061.84
2022-12-28T05:23:40.231Z,101062.81
2022-12-28T05:26:16.040Z,101054.00
2022-12-28T05:28:48.754Z,101055.66
2022-12-28T05:31:23.616Z,101049.59
2022-12-28T05:33:55.965Z,101055.94
2022-12-28T05:36:28.487Z,101043.66
2022-12-28T05:39:00.659Z,101047.81
2022-12-28T05:41:32.914Z,101053.38
2022-12-28T05:44:05.761Z,101054.28
2022-12-28T05:46:37.812Z,101061.31
2022-12-28T05:49:10.306Z,101065.75
2022-12-28T05:51:42.345Z,101046.28
2022-12-28T05:54:14.321Z,101051.84
2022-12-28T05:56:49.833Z,101058.06
2022-12-28T05:59:21.859Z,101050.13
2022-12-28T06:01:53.932Z,101058.19
2022-12-28T06:04:26.094Z,101038.16
2022-12-28T06:06:58.033Z,101038.19
2022-12-28T06:09:30.268Z,101034.69
2022-12-28T06:12:02.217Z,101036.56
2022-12-28T06:14:34.255Z,101033.94
2022-12-28T06:17:06.333Z,101021.31
2022-12-28T06:19:38.443Z,101035.72
2022-12-28T06:22:10.461Z,101024.41
2022-12-28T06:24:42.370Z,101002.97
2022-12-28T06:27:14.283Z,101021.81
2022-12-28T06:29:46.191Z,101017.47
2022-12-28T06:32:18.204Z,101011.47
2022-12-28T06:34:50.146Z,101006.22
2022-12-28T06:37:22.327Z,101007.94
2022-12-28T06:39:54.235Z,101003.69
2022-12-28T06:42:26.221Z,101005.63
2022-12-28T06:44:58.098Z,101012.63
2022-12-28T06:47:30.063Z,101009.13
2022-12-28T06:50:02.323Z,100996.72
2022-12-28T06:52:34.258Z,100994.25
2022-12-28T06:55:06.831Z,100986.38
2022-12-28T06:57:38.805Z,101001.28
2022-12-28T07:00:12.962Z,100989.91
2022-12-28T07:02:45.197Z,100996.16
2022-12-28T07:05:17.290Z,100984.78
2022-12-28T07:07:49.226Z,100975.34
2022-12-28T07:10:21.204Z,100993.00
2022-12-28T07:12:53.115Z,100979.81
2022-12-28T07:15:25.361Z,100985.94
2022-12-28T07:17:58.912Z,100979.03
2022-12-28T07:20:34.214Z,100986.09
2022-12-28T07:23:09.034Z,100977.28
2022-12-28T07:25:40.938Z,100987.75
2022-12-28T07:28:12.861Z,100984.28
2022-12-28T07:30:44.978Z,100967.66
2022-12-28T07:33:16.971Z,100997.72
2022-12-28T07:35:48.965Z,100992.41
2022-12-28T07:38:21.642Z,100974.69
2022-12-28T07:40:53.770Z,100986.41
2022-12-28T07:43:25.781Z,100984.81
2022-12-28T07:46:19.979Z,100961.81
2022-12-28T07:48:53.033Z,100979.59
2022-12-28T07:51:36.244Z,100964.34
2022-12-28T07:54:08.246Z,100995.22
2022-12-28T07:59:13.476Z,100979.59
2022-12-28T08:01:45.535Z,100992.00
2022-12-28T08:04:18.524Z,100978.91
2022-12-28T08:06:50.500Z,100981.50
2022-12-28T08:09:22.740Z,100985.09
2022-12-28T08:11:54.747Z,100979.84
2022-12-28T08:14:26.789Z,100970.06
2022-12-28T08:16:58.729Z,100978.28
2022-12-28T08:19:30.674Z,100987.13
2022-12-28T08:22:02.619Z,100992.38
2022-12-28T08:24:35.656Z,100988.78
2022-12-28T08:27:07.575Z,100982.66
2022-12-28T08:29:39.550Z,100980.06
2022-12-28T08:32:11.572Z,100975.75
2022-12-28T08:34:43.522Z,100976.66
2022-12-28T08:37:15.523Z,100985.47
2022-12-28T08:39:47.543Z,100969.63
2022-12-28T08:42:19.561Z,100972.31
2022-12-28T08:44:51.511Z,100973.94
2022-12-28T08:47:23.449Z,100970.50
2022-12-28T08:49:55.384Z,100969.75
2022-12-28T08:52:27.682Z,100972.34
2022-12-28T08:54:59.580Z,100976.53
2022-12-28T08:57:33.488Z,100972.31
2022-12-28T09:00:06.870Z,100976.78
2022-12-28T09:02:38.982Z,100959.00
2022-12-28T09:05:11.090Z,100980.34
2022-12-28T09:07:43.106Z,100983.81
2022-12-28T09:10:15.143Z,100976.84
2022-12-28T09:12:47.150Z,100982.16
2022-12-28T09:15:19.133Z,100982.16
2022-12-28T09:17:51.075Z,100983.06
2022-12-28T09:20:23.143Z,100976.91
2022-12-28T09:22:55.061Z,100978.00
2022-12-28T09:25:26.979Z,100985.78
2022-12-28T09:27:59.696Z,100994.56
2022-12-28T09:30:31.718Z,100973.72
2022-12-28T09:33:22.421Z,100986.13
2022-12-28T09:35:59.787Z,100988.66
2022-12-28T09:38:31.902Z,100979.97
2022-12-28T09:41:13.302Z,100971.09
2022-12-28T09:43:45.320Z,100979.09
2022-12-28T09:46:21.940Z,100987.16
2022-12-28T09:48:59.744Z,100981.13
2022-12-28T09:51:43.685Z,100981.22
2022-12-28T09:54:15.785Z,100973.47
2022-12-28T09:56:48.961Z,100981.38
2022-12-28T09:59:26.081Z,100970.75
2022-12-28T10:02:03.326Z,100976.22
2022-12-28T10:04:35.491Z,100964.91
2022-12-28T10:07:11.921Z,100963.88
2022-12-28T10:09:45.352Z,100971.78
2022-12-28T10:12:24.696Z,100967.44
2022-12-28T10:14:58.708Z,100955.88
2022-12-28T10:17:30.691Z,100965.75
2022-12-28T10:20:02.696Z,100943.91
2022-12-28T10:22:46.360Z,100959.66
2022-12-28T10:25:26.785Z,100956.94
2022-12-28T10:28:00.740Z,100944.78
2022-12-28T10:30:32.741Z,100950.09
2022-12-28T10:33:04.808Z,100942.31
2022-12-28T10:35:50.151Z,100943.97
2022-12-28T10:38:32.747Z,100946.59
2022-12-28T10:41:13.110Z,100937.91
2022-12-28T10:44:21.558Z,100937.00
2022-12-28T10:47:22.817Z,100922.53
2022-12-28T10:52:58.237Z,100937.91
2022-12-28T10:55:33.812Z,100937.91
2022-12-28T10:58:30.583Z,100929.19
2022-12-28T11:01:15.360Z,100925.72
2022-12-28T11:03:56.087Z,100928.44
2022-12-28T11:06:35.270Z,100924.06
2022-12-28T11:09:26.161Z,100933.66
2022-12-28T11:12:24.187Z,100918.56
2022-12-28T11:14:56.347Z,100923.34
2022-12-28T11:17:34.276Z,100916.50
2022-12-28T11:20:21.008Z,100905.88
2022-12-28T11:22:53.857Z,100908.47
2022-12-28T11:25:37.109Z,100907.75
2022-12-28T11:28:19.456Z,100895.63
2022-12-28T11:30:55.448Z,100915.06
2022-12-28T11:33:43.286Z,100895.56
2022-12-28T11:36:17.643Z,100880.78
2022-12-28T11:38:52.560Z,100874.78
2022-12-28T11:41:30.158Z,100874.06
2022-12-28T11:44:06.183Z,100873.41
2022-12-28T11:46:40.314Z,100877.81
2022-12-28T11:49:35.510Z,100866.31
2022-12-28T11:52:30.980Z,100863.72
2022-12-28T11:55:26.337Z,100842.22
2022-12-28T11:57:58.404Z,100851.59
2022-12-28T12:00:39.344Z,100835.84
2022-12-28T12:03:11.352Z,100845.47
2022-12-28T12:05:43.361Z,100838.50
2022-12-28T12:08:16.630Z,100839.41
2022-12-28T12:11:18.590Z,100835.84
2022-12-28T12:13:53.519Z,100816.50
2022-12-28T12:16:46.503Z,100819.31
2022-12-28T12:19:29.493Z,100828.00
2022-12-28T12:22:01.453Z,100828.97
2022-12-28T12:24:44.720Z,100814.97
2022-12-28T12:27:53.476Z,100811.38
2022-12-28T12:30:27.275Z,100803.59
2022-12-28T12:33:06.644Z,100808.94
2022-12-28T12:36:04.986Z,100788.72
2022-12-28T12:38:49.013Z,100788.75
2022-12-28T12:41:44.673Z,100784.47
2022-12-28T12:44:39.524Z,100773.09
2022-12-28T12:48:03.273Z,100775.66
2022-12-28T12:50:57.767Z,100763.50
2022-12-28T12:53:54.657Z,100758.50
2022-12-28T12:57:04.353Z,100746.97
2022-12-28T12:59:54.320Z,100727.91
2022-12-28T13:02:44.634Z,100741.13
2022-12-28T13:05:24.491Z,100721.94
2022-12-28T13:07:59.955Z,100734.31
2022-12-28T13:10:43.984Z,100718.50
2022-12-28T13:13:39.129Z,100719.47
2022-12-28T13:16:17.054Z,100716.03
2022-12-28T13:19:06.354Z,100716.06
2022-12-28T13:21:50.657Z,100700.28
2022-12-28T13:24:30.858Z,100693.03
2022-12-28T13:27:07.644Z,100690.59
2022-12-28T13:29:42.673Z,100688.19
2022-12-28T13:32:38.239Z,100677.56
2022-12-28T13:35:20.493Z,100660.13
2022-12-28T13:38:19.117Z,100654.00
2022-12-28T13:40:53.931Z,100654.22
2022-12-28T13:43:26.281Z,100648.16
2022-12-28T13:46:08.182Z,100653.31
2022-12-28T13:48:46.899Z,100645.47
2022-12-28T13:51:22.029Z,100634.25
2022-12-28T13:54:00.994Z,100634.34
2022-12-28T13:56:36.252Z,100613.38
2022-12-28T13:59:14.864Z,100609.88
2022-12-28T14:01:50.522Z,100590.66
2022-12-28T14:04:51.666Z,100585.47
2022-12-28T14:07:19.694Z,100582.03
2022-12-28T14:09:52.903Z,100570.69
2022-12-28T14:12:25.688Z,100570.63
2022-12-28T14:14:59.326Z,100575.28
2022-12-28T14:17:31.649Z,100552.59
2022-12-28T14:20:04.509Z,100552.59
2022-12-28T14:22:39.929Z,100551.78
2022-12-28T14:25:16.399Z,100558.75
2022-12-28T14:28:03.868Z,100546.44
2022-12-28T14:30:43.046Z,100546.28
2022-12-28T14:33:25.872Z,100536.41
2022-12-28T14:36:01.824Z,100537.31
2022-12-28T14:38:46.960Z,100531.09
2022-12-28T14:41:35.240Z,100515.25
2022-12-28T14:44:29.129Z,100499.91
2022-12-28T14:47:01.285Z,100511.69
2022-12-28T14:49:36.113Z,100508.41
2022-12-28T14:52:08.003Z,100512.72
2022-12-28T14:54:50.719Z,100510.94
2022-12-28T14:57:41.968Z,100503.91
2022-12-28T15:00:24.829Z,100495.19
2022-12-28T15:03:11.578Z,100474.72
2022-12-28T15:05:51.756Z,100490.88
2022-12-28T15:08:27.288Z,100489.16
2022-12-28T15:11:00.590Z,100479.53
2022-12-28T15:13:32.617Z,100469.84
2022-12-28T15:16:05.536Z,100476.16
2022-12-28T15:18:45.107Z,100471.72
2022-12-28T15:21:23.948Z,100458.59
2022-12-28T15:23:57.005Z,100437.50
2022-12-28T15:26:28.953Z,100437.53
2022-12-28T15:29:05.658Z,100429.25
2022-12-28T15:31:37.753Z,100442.91
2022-12-28T15:34:09.745Z,100445.47
2022-12-28T15:36:45.506Z,100441.03
2022-12-28T15:39:17.523Z,100437.53
2022-12-28T15:41:50.385Z,100427.00
2022-12-28T15:44:22.441Z,100406.66
2022-12-28T15:46:54.407Z,100407.66
2022-12-28T15:49:26.699Z,100413.00
2022-12-28T15:51:59.796Z,100397.31
2022-12-28T15:54:31.793Z,100406.94
2022-12-28T15:57:04.221Z,100413.00
2022-12-28T15:59:36.418Z,100397.91
2022-12-28T16:02:11.734Z,100405.91
2022-12-28T16:04:43.937Z,100391.72
2022-12-28T16:07:16.345Z,100381.09
2022-12-28T16:09:49.111Z,100396.09
2022-12-28T16:12:21.236Z,100378.38
2022-12-28T16:14:53.196Z,100386.41
2022-12-28T16:17:25.172Z,100380.25
2022-12-28T16:19:57.291Z,100370.56
2022-12-28T16:22:29.266Z,100375.91
2022-12-28T16:25:01.269Z,100373.22
2022-12-28T16:27:33.585Z,100361.75
2022-12-28T16:30:06.633Z,100357.38
2022-12-28T16:32:38.789Z,100353.00
2022-12-28T16:35:11.040Z,100347.53
2022-12-28T16:37:43.416Z,100336.13
2022-12-28T16:40:15.445Z,100341.41
2022-12-28T16:42:47.440Z,100336.16
2022-12-28T16:45:19.448Z,100330.00
2022-12-28T16:47:51.444Z,100324.75
2022-12-28T16:50:23.457Z,100311.56
2022-12-28T16:52:55.527Z,100300.13
2022-12-28T16:55:28.589Z,100310.66
2022-12-28T16:58:00.622Z,100311.47
2022-12-28T17:00:32.859Z,100296.59
2022-12-28T17:03:04.887Z,100303.59
2022-12-28T17:05:38.464Z,100288.66
2022-12-28T17:08:10.455Z,100296.63
2022-12-28T17:10:42.925Z,100293.09
2022-12-28T17:13:16.305Z,100297.38
2022-12-28T17:15:48.842Z,100278.06
2022-12-28T17:18:20.837Z,100274.53
2022-12-28T17:20:52.846Z,100256.16
2022-12-28T17:23:24.935Z,100264.84
2022-12-28T17:25:56.996Z,100259.53
2022-12-28T17:28:29.589Z,100269.22
2022-12-28T17:31:14.185Z,100261.22
2022-12-28T17:33:49.462Z,100243.84
2022-12-28T17:36:22.387Z,100233.38
2022-12-28T17:38:54.542Z,100237.63
2022-12-28T17:41:27.808Z,100235.91
2022-12-28T17:44:01.151Z,100224.47
2022-12-28T17:46:37.905Z,100230.59
2022-12-28T17:49:15.641Z,100214.72
2022-12-28T17:51:48.501Z,100216.41
2022-12-28T17:54:20.536Z,100211.19
2022-12-28T17:56:52.521Z,100204.09
2022-12-28T17:59:24.498Z,100206.69
2022-12-28T18:01:56.969Z,100187.34
2022-12-28T18:04:29.168Z,100196.94
2022-12-28T18:07:01.358Z,100201.44
2022-12-28T18:09:33.954Z,100196.13
2022-12-28T18:12:06.121Z,100196.06
2022-12-28T18:14:38.191Z,100175.91
2022-12-28T18:17:10.144Z,100189.91
2022-12-28T18:19:42.151Z,100177.56
2022-12-28T18:22:14.359Z,100180.97
2022-12-28T18:24:46.321Z,100180.00
2022-12-28T18:27:18.332Z,100181.69
2022-12-28T18:29:52.030Z,100176.44
2022-12-28T18:32:24.161Z,100186.94
2022-12-28T18:34:56.105Z,100172.97
2022-12-28T18:37:28.250Z,100160.63
2022-12-28T18:40:00.262Z,100163.28
2022-12-28T18:42:32.274Z,100159.03
2022-12-28T18:45:04.740Z,100162.56
2022-12-28T18:47:36.738Z,100163.41
2022-12-28T18:50:09.234Z,100160.78
2022-12-28T18:52:41.309Z,100149.31
2022-12-28T18:55:13.307Z,100155.59
2022-12-28T18:57:45.331Z,100154.75
2022-12-28T19:00:17.677Z,100153.94
2022-12-28T19:02:53.041Z,100141.63
2022-12-28T19:05:25.131Z,100143.09
2022-12-28T19:07:57.064Z,100149.59
2022-12-28T19:10:29.091Z,100146.94
2022-12-28T19:13:01.092Z,100142.50
2022-12-28T19:15:33.139Z,100142.59
2022-12-28T19:18:05.251Z,100141.78
2022-12-28T19:20:37.439Z,100126.06
2022-12-28T19:23:12.010Z,100131.31
2022-12-28T19:25:44.034Z,100143.66
2022-12-28T19:28:16.017Z,100133.22
2022-12-28T19:30:48.001Z,100127.09
2022-12-28T19:33:19.970Z,100121.75
2022-12-28T19:35:51.965Z,100128.88
2022-12-28T19:38:23.965Z,100119.28
2022-12-28T19:40:56.479Z,100113.13
2022-12-28T19:43:28.431Z,100124.66
2022-12-28T19:46:17.328Z,100128.25
2022-12-28T19:48:53.522Z,100124.72
2022-12-28T19:51:30.574Z,100129.19
2022-12-28T19:54:03.708Z,100130.94
2022-12-28T19:56:35.709Z,100131.84
2022-12-28T19:59:07.708Z,100120.47
2022-12-28T20:01:39.883Z,100110.03
2022-12-28T20:04:14.473Z,100103.03
2022-12-28T20:06:46.790Z,100105.78
2022-12-28T20:09:18.871Z,100097.84
2022-12-28T20:11:51.985Z,100114.59
2022-12-28T20:14:25.330Z,100105.00
2022-12-28T20:16:57.403Z,100117.25
2022-12-28T20:19:29.460Z,100111.19
2022-12-28T20:22:01.421Z,100103.25
2022-12-28T20:24:33.358Z,100094.69
2022-12-28T20:27:05.302Z,100093.88
2022-12-28T20:29:37.487Z,100084.19
2022-12-28T20:32:09.430Z,100090.44
2022-12-28T20:34:41.552Z,100090.47
2022-12-28T20:37:13.500Z,100091.38
2022-12-28T20:39:45.487Z,100086.13
2022-12-28T20:42:38.898Z,100086.16
2022-12-28T20:45:10.995Z,100097.63
2022-12-28T20:47:42.979Z,100074.91
2022-12-28T20:50:15.253Z,100078.47
2022-12-28T20:52:47.272Z,100082.06
2022-12-28T20:55:19.363Z,100077.72
2022-12-28T20:57:53.373Z,100076.97
2022-12-28T21:00:25.649Z,100070.00
2022-12-28T21:02:57.591Z,100062.06
2022-12-28T21:05:29.688Z,100071.91
2022-12-28T21:08:01.714Z,100060.38
2022-12-28T21:10:33.773Z,100067.63
2022-12-28T21:13:05.735Z,100078.19
2022-12-28T21:15:41.187Z,100070.34
2022-12-28T21:18:13.263Z,100071.28
2022-12-28T21:21:00.315Z,100053.59
2022-12-28T21:23:33.386Z,100045.81
2022-12-28T21:26:10.876Z,100048.50
2022-12-28T21:28:43.894Z,100048.59
2022-12-28T21:31:16.440Z,100038.09
2022-12-28T21:33:48.525Z,100029.31
2022-12-28T21:36:20.566Z,100025.97
2022-12-28T21:38:52.576Z,100033.84
2022-12-28T21:41:43.601Z,100023.41
2022-12-28T21:44:24.604Z,100024.28
2022-12-28T21:46:56.653Z,100013.81
2022-12-28T21:49:28.737Z,100019.13
2022-12-28T21:52:01.945Z,100004.28
2022-12-28T21:54:34.175Z,100003.38
2022-12-28T21:57:06.224Z,100014.84
2022-12-28T21:59:39.833Z,100010.50
2022-12-28T22:02:37.658Z,99995.47
2022-12-28T22:05:29.402Z,100021.97
2022-12-28T22:08:21.347Z,99997.38
2022-12-28T22:11:15.652Z,100009.78
2022-12-28T22:13:47.660Z,99992.28
2022-12-28T22:16:19.642Z,99989.69
2022-12-28T22:19:07.036Z,99995.78
2022-12-28T22:21:39.271Z,99979.97
2022-12-28T22:24:11.357Z,99988.84
2022-12-28T22:26:43.595Z,99972.13
2022-12-28T22:29:15.793Z,99985.38
2022-12-28T22:31:47.787Z,99987.13
2022-12-28T22:34:19.886Z,99979.22
2022-12-28T22:36:51.877Z,99985.28
2022-12-28T22:39:23.828Z,99986.22
2022-12-28T22:41:55.811Z,99983.59
2022-12-28T22:44:27.875Z,99980.03
2022-12-28T22:46:59.828Z,99974.75
2022-12-28T22:49:31.771Z,99987.06
2022-12-28T22:52:03.930Z,99992.38
2022-12-28T22:54:35.908Z,99987.00
2022-12-28T22:57:07.898Z,99981.84
2022-12-28T22:59:39.880Z,99974.94
2022-12-28T23:02:12.038Z,99982.03
2022-12-28T23:04:44.454Z,99975.00
2022-12-28T23:07:16.569Z,99968.94
2022-12-28T23:09:48.611Z,99972.47
2022-12-28T23:12:20.620Z,99971.66
2022-12-28T23:15:11.092Z,99978.72
2022-12-28T23:17:43.457Z,99973.44
2022-12-28T23:20:34.596Z,99955.09
2022-12-28T23:23:25.152Z,99976.13
2022-12-28T23:26:19.866Z,99966.44
2022-12-28T23:28:51.808Z,99959.50
2022-12-28T23:31:23.850Z,99957.75
2022-12-28T23:33:57.877Z,99948.09
2022-12-28T23:36:29.842Z,99954.28
2022-12-28T23:39:01.811Z,99934.09
2022-12-28T23:41:48.648Z,99904.84
2022-12-28T23:44:24.103Z,99920.97
2022-12-28T23:46:59.264Z,99930.66
2022-12-28T23:49:31.705Z,99901.47
2022-12-28T23:52:03.821Z,99891.13
2022-12-28T23:54:35.757Z,99905.16
2022-12-28T23:57:07.738Z,99898.06
2022-12-28T23:59:39.799Z,99901.63
